Time;durP1;ratioP1;P1;durP2;ratioP2;P2;SDS_P1;SDS_P2;PMS_P1;PMS_P2;Temp;Humidity;BMP_temperature;BMP_pressure;BME280_temperature;BME280_humidity;BME280_pressure;Samples;Min_cycle;Max_cycle;Signal;HPM_P1;HPM_P2
2023/05/21 00:00:11;;;;;;;0.40;0.40;;;;;;;9.85;74.79;101660.78;5084998;28;20042;-66
2023/05/21 00:02:37;;;;;;;0.50;0.50;;;;;;;9.83;74.87;101664.19;5083751;28;20404;-66
2023/05/21 00:05:03;;;;;;;0.30;0.30;;;;;;;9.81;75.16;101656.38;5084617;28;20032;-66
2023/05/21 00:07:30;;;;;;;0.50;0.50;;;;;;;9.72;75.33;101658.84;5086685;28;20040;-67
2023/05/21 00:09:56;;;;;;;0.40;0.40;;;;;;;9.78;75.53;101658.94;5087382;28;20111;-65
2023/05/21 00:12:21;;;;;;;1.25;1.15;;;;;;;9.77;75.70;101662.38;5087445;28;20028;-65
2023/05/21 00:14:47;;;;;;;0.77;0.77;;;;;;;9.90;75.93;101661.72;5088922;28;20025;-66
2023/05/21 00:17:12;;;;;;;0.35;0.35;;;;;;;9.87;75.88;101659.06;5088520;28;20068;-65
2023/05/21 00:19:38;;;;;;;0.30;0.30;;;;;;;9.89;75.92;101656.50;5088409;28;20024;-66
2023/05/21 00:22:04;;;;;;;0.32;0.32;;;;;;;9.94;75.78;101656.56;5088838;28;20024;-65
2023/05/21 00:24:29;;;;;;;0.50;0.50;;;;;;;9.97;75.90;101657.47;5088399;28;20059;-65
2023/05/21 00:26:55;;;;;;;0.63;0.63;;;;;;;10.01;75.71;101650.63;5088313;28;20024;-65
2023/05/21 00:29:21;;;;;;;0.30;0.30;;;;;;;10.06;75.79;101646.38;5088391;28;20020;-66
2023/05/21 00:31:47;;;;;;;0.35;0.35;;;;;;;10.05;75.68;101639.44;5088375;28;20021;-65
2023/05/21 00:34:13;;;;;;;0.40;0.40;;;;;;;10.06;75.61;101646.38;5086979;28;20024;-65
2023/05/21 00:36:39;;;;;;;0.30;0.30;;;;;;;10.01;75.76;101635.94;5088154;28;20175;-65
2023/05/21 00:39:05;;;;;;;0.30;0.30;;;;;;;10.05;75.64;101639.44;5088368;28;20047;-65
2023/05/21 00:41:30;;;;;;;0.47;0.47;;;;;;;10.04;75.75;101637.69;5087912;28;20020;-65
2023/05/21 00:43:59;;;;;;;0.30;0.30;;;;;;;10.06;75.74;101643.78;5088151;28;20024;-65
2023/05/21 00:46:27;;;;;;;0.40;0.40;;;;;;;10.01;75.65;101638.53;5088043;28;20065;-65
2023/05/21 00:48:53;;;;;;;0.30;0.30;;;;;;;9.95;75.73;101638.44;5087928;28;20035;-65
2023/05/21 00:51:20;;;;;;;0.63;0.63;;;;;;;10.00;75.87;101648.91;5088052;28;20043;-66
2023/05/21 00:53:51;;;;;;;0.40;0.40;;;;;;;9.98;75.71;101643.69;5088019;28;20021;-66
2023/05/21 00:56:18;;;;;;;0.30;0.30;;;;;;;9.94;76.02;101638.41;5087684;28;20100;-65
2023/05/21 00:58:43;;;;;;;0.30;0.30;;;;;;;9.90;75.95;101637.50;5087902;28;20042;-65
2023/05/21 01:01:12;;;;;;;0.30;0.30;;;;;;;9.90;76.29;101640.09;5087878;28;20052;-65
2023/05/21 01:03:39;;;;;;;0.30;0.30;;;;;;;9.97;76.26;101644.50;5087751;28;20039;-65
2023/05/21 01:06:06;;;;;;;0.40;0.40;;;;;;;9.96;76.46;101642.78;5087543;28;20099;-66
2023/05/21 01:08:33;;;;;;;0.30;0.30;;;;;;;9.92;76.59;101641.84;5087628;28;20032;-65
2023/05/21 01:11:00;;;;;;;0.38;0.38;;;;;;;9.94;76.73;101641.88;5087200;28;20024;-64
2023/05/21 01:13:26;;;;;;;0.40;0.40;;;;;;;9.88;76.80;101637.50;5087749;28;20024;-65
2023/05/21 01:15:53;;;;;;;0.30;0.30;;;;;;;9.89;77.05;101640.94;5087666;28;20035;-66
2023/05/21 01:18:19;;;;;;;0.40;0.40;;;;;;;9.94;77.09;101635.81;5086382;28;20041;-65
2023/05/21 01:20:49;;;;;;;0.40;0.40;;;;;;;9.97;76.86;101644.50;5087433;28;20032;-66
2023/05/21 01:23:19;;;;;;;0.40;0.40;;;;;;;10.10;76.71;101645.56;5086058;28;20016;-66
2023/05/21 01:25:45;;;;;;;0.30;0.30;;;;;;;10.24;76.24;101642.28;5086937;28;20043;-66
2023/05/21 01:28:11;;;;;;;0.40;0.40;;;;;;;10.28;75.96;101641.47;5087134;28;20030;-65
2023/05/21 01:30:41;;;;;;;0.30;0.30;;;;;;;10.33;75.85;101636.34;5085941;28;20032;-65
2023/05/21 01:33:36;;;;;;;0.35;0.35;;;;;;;10.53;74.97;101646.97;5087331;28;20028;-66
2023/05/21 01:36:17;;;;;;;0.30;0.30;;;;;;;10.47;75.00;101645.19;5086998;28;20062;-66
2023/05/21 01:39:11;;;;;;;0.87;0.87;;;;;;;10.49;74.87;101653.00;5085898;28;20374;-65
2023/05/21 01:41:42;;;;;;;0.40;0.40;;;;;;;10.46;74.48;101637.34;5084490;28;20032;-65
2023/05/21 01:44:09;;;;;;;0.30;0.30;;;;;;;10.45;74.36;101635.63;5087080;28;20021;-67
2023/05/21 01:46:35;;;;;;;0.30;0.30;;;;;;;10.49;74.07;101646.09;5087002;28;20025;-65
2023/05/21 01:49:01;;;;;;;0.68;0.68;;;;;;;10.44;73.85;101634.75;5086866;28;20032;-65
2023/05/21 01:51:27;;;;;;;0.40;0.40;;;;;;;10.38;73.34;101624.28;5086703;28;20028;-65
2023/05/21 01:53:52;;;;;;;0.70;0.70;;;;;;;10.38;73.39;101637.25;5085432;28;20025;-65
2023/05/21 01:56:18;;;;;;;0.30;0.30;;;;;;;10.43;73.65;101653.78;5085418;28;20101;-65
2023/05/21 01:58:43;;;;;;;0.40;0.40;;;;;;;10.45;72.96;101643.41;5086958;28;20020;-65
2023/05/21 02:01:09;;;;;;;0.50;0.50;;;;;;;10.42;72.67;101644.22;5086765;28;20028;-65
2023/05/21 02:03:34;;;;;;;0.70;0.70;;;;;;;10.42;72.06;101636.44;5086478;28;20016;-66
2023/05/21 02:05:59;;;;;;;0.30;0.30;;;;;;;10.44;72.07;101644.25;5086145;28;20029;-64
2023/05/21 02:08:26;;;;;;;0.55;0.55;;;;;;;10.38;71.92;101643.31;5086477;28;20017;-64
2023/05/21 02:10:51;;;;;;;0.98;0.98;;;;;;;10.26;71.99;101636.25;5086579;28;20059;-65
2023/05/21 02:13:19;;;;;;;0.40;0.40;;;;;;;10.26;72.10;101640.56;5086352;28;20397;-65
2023/05/21 02:15:46;;;;;;;0.30;0.30;;;;;;;10.16;72.04;101634.38;5086339;28;20477;-65
2023/05/21 02:18:15;;;;;;;0.60;0.60;;;;;;;10.15;72.00;101636.13;5086375;28;20506;-65
2023/05/21 02:20:42;;;;;;;0.40;0.40;;;;;;;10.13;71.69;101637.81;5086254;28;20084;-66
2023/05/21 02:23:07;;;;;;;0.30;0.30;;;;;;;10.10;71.31;101630.00;5086167;28;20090;-65
2023/05/21 02:25:32;;;;;;;0.30;0.30;;;;;;;10.12;70.86;101636.09;5084866;28;20025;-65
2023/05/21 02:27:58;;;;;;;0.40;0.40;;;;;;;10.11;70.74;101647.28;5085981;28;20048;-65
2023/05/21 02:30:23;;;;;;;0.50;0.50;;;;;;;10.09;70.30;101642.94;5086140;28;20020;-65
2023/05/21 02:32:49;;;;;;;0.30;0.30;;;;;;;10.06;70.08;101638.59;5085751;28;20020;-65
2023/05/21 02:35:15;;;;;;;0.40;0.40;;;;;;;10.02;69.84;101641.97;5086119;28;20051;-65
2023/05/21 02:37:40;;;;;;;0.40;0.40;;;;;;;9.98;69.26;101642.81;5086091;28;20028;-64
2023/05/21 02:40:08;;;;;;;0.40;0.40;;;;;;;10.02;69.19;101642.88;5085857;28;20020;-65
2023/05/21 02:42:35;;;;;;;0.70;0.70;;;;;;;9.94;69.33;101641.00;5085748;28;20447;-65
2023/05/21 02:45:01;;;;;;;0.40;0.40;;;;;;;9.91;68.88;101629.75;5085828;28;20020;-66
2023/05/21 02:47:26;;;;;;;0.30;0.30;;;;;;;9.94;68.58;101639.28;5085895;28;20035;-64
2023/05/21 02:49:52;;;;;;;0.40;0.40;;;;;;;9.91;68.51;101645.31;5085632;28;20024;-66
2023/05/21 02:52:20;;;;;;;0.40;0.40;;;;;;;9.96;68.20;101647.97;5085727;28;20029;-66
2023/05/21 02:54:46;;;;;;;0.40;0.40;;;;;;;9.92;67.42;101631.47;5085591;28;20392;-65
2023/05/21 02:57:12;;;;;;;0.30;0.30;;;;;;;10.06;67.19;101629.94;5085245;28;20043;-66
2023/05/21 02:59:37;;;;;;;0.40;0.40;;;;;;;10.10;66.87;101650.75;5085637;28;20027;-65
2023/05/21 03:02:02;;;;;;;0.40;0.40;;;;;;;10.06;66.62;101648.09;5085582;28;20054;-64
2023/05/21 03:04:28;;;;;;;0.30;0.30;;;;;;;10.03;66.89;101648.94;5085607;28;20017;-65
2023/05/21 03:06:54;;;;;;;0.40;0.40;;;;;;;10.02;66.79;101636.78;5085415;28;20024;-64
2023/05/21 03:09:20;;;;;;;1.00;0.95;;;;;;;10.11;66.48;101646.44;5085425;28;20055;-65
2023/05/21 03:11:46;;;;;;;0.40;0.40;;;;;;;10.25;66.01;101639.72;5085103;28;20027;-65
2023/05/21 03:14:12;;;;;;;0.77;0.77;;;;;;;10.41;65.49;101642.50;5085464;28;20024;-65
2023/05/21 03:16:40;;;;;;;0.60;0.60;;;;;;;10.69;64.24;101645.44;5085251;28;20049;-65
2023/05/21 03:19:06;;;;;;;0.30;0.30;;;;;;;10.79;63.76;101633.41;5085406;28;20051;-65
2023/05/21 03:21:32;;;;;;;0.40;0.40;;;;;;;10.89;63.36;101627.44;5085153;28;20033;-65
2023/05/21 03:23:58;;;;;;;0.30;0.30;;;;;;;10.76;63.03;101592.72;5085060;28;20105;-65
2023/05/21 03:26:26;;;;;;;0.30;0.30;;;;;;;11.15;62.88;101637.22;5085133;28;20020;-65
2023/05/21 03:28:52;;;;;;;1.05;1.05;;;;;;;11.23;62.74;101636.44;5085146;28;20108;-65
2023/05/21 03:31:18;;;;;;;0.30;0.30;;;;;;;11.35;62.34;101631.34;5085194;28;20160;-65
2023/05/21 03:33:43;;;;;;;0.70;0.70;;;;;;;11.50;61.72;101634.94;5083943;28;20032;-64
2023/05/21 03:36:08;;;;;;;0.30;0.30;;;;;;;11.57;61.85;101631.50;5085058;28;20110;-64
2023/05/21 03:38:34;;;;;;;0.30;0.30;;;;;;;11.64;61.54;101638.50;5085247;28;20024;-64
2023/05/21 03:40:59;;;;;;;0.30;0.30;;;;;;;11.74;61.01;101635.97;5084474;28;20127;-64
2023/05/21 03:43:25;;;;;;;0.40;0.40;;;;;;;11.90;60.89;101644.72;5084945;28;20029;-64
2023/05/21 03:45:50;;;;;;;0.47;0.47;;;;;;;11.98;60.58;101639.56;5085293;28;20020;-64
2023/05/21 03:48:16;;;;;;;0.60;0.60;;;;;;;12.13;60.73;101634.47;5084973;28;20036;-65
2023/05/21 03:50:42;;;;;;;0.30;0.30;;;;;;;12.34;60.45;101629.34;5083869;28;20021;-64
2023/05/21 03:53:09;;;;;;;0.30;0.30;;;;;;;12.58;59.77;101635.50;5084977;28;20084;-64
2023/05/21 03:55:35;;;;;;;0.30;0.30;;;;;;;12.82;58.96;101626.88;5084851;28;20024;-64
2023/05/21 03:58:00;;;;;;;0.30;0.30;;;;;;;12.98;57.83;101639.94;5084741;28;20196;-64
2023/05/21 04:00:25;;;;;;;0.30;0.30;;;;;;;13.10;57.27;101619.09;5084999;28;20021;-64
2023/05/21 04:02:51;;;;;;;0.30;0.30;;;;;;;13.22;57.47;101633.88;5085007;28;20468;-65
2023/05/21 04:05:16;;;;;;;1.42;0.70;;;;;;;13.43;56.77;101636.47;5084954;28;20088;-64
2023/05/21 04:07:45;;;;;;;0.30;0.30;;;;;;;13.52;56.35;101628.66;5084743;28;20428;-64
2023/05/21 04:10:11;;;;;;;0.30;0.30;;;;;;;13.80;56.02;101633.84;5084729;28;20020;-65
2023/05/21 04:12:36;;;;;;;0.30;0.30;;;;;;;13.98;56.38;101632.94;5084660;28;20031;-65
2023/05/21 04:15:02;;;;;;;0.30;0.30;;;;;;;14.40;55.26;101634.50;5084848;28;20051;-65
2023/05/21 04:17:28;;;;;;;0.30;0.30;;;;;;;14.59;53.70;101629.19;5084732;28;20131;-64
2023/05/21 04:19:53;;;;;;;0.30;0.30;;;;;;;14.72;53.02;101635.22;5084764;28;20048;-63
2023/05/21 04:22:20;;;;;;;0.40;0.40;;;;;;;14.75;52.46;101635.19;5084530;28;20107;-64
2023/05/21 04:24:45;;;;;;;1.65;1.55;;;;;;;14.82;52.80;101623.88;5084500;28;20034;-64
2023/05/21 04:27:12;;;;;;;0.30;0.30;;;;;;;15.18;51.46;101633.19;5084639;28;20048;-64
2023/05/21 04:29:41;;;;;;;0.40;0.40;;;;;;;15.34;51.21;101629.56;5084838;28;20088;-64
2023/05/21 04:32:07;;;;;;;0.30;0.30;;;;;;;15.63;51.07;101634.53;5084397;28;20028;-64
2023/05/21 04:34:33;;;;;;;0.30;0.30;;;;;;;15.88;50.01;101631.69;5084691;28;20029;-65
2023/05/21 04:36:59;;;;;;;0.30;0.30;;;;;;;16.10;49.89;101635.78;5084537;28;20031;-64
2023/05/21 04:39:25;;;;;;;0.30;0.30;;;;;;;16.28;49.08;101636.47;5083219;28;20017;-64
2023/05/21 04:41:53;;;;;;;0.30;0.30;;;;;;;16.38;48.95;101623.22;5084066;28;20066;-64
2023/05/21 04:44:18;;;;;;;0.30;0.30;;;;;;;16.66;48.48;101620.25;5084400;28;20099;-66
2023/05/21 04:46:44;;;;;;;0.20;0.20;;;;;;;16.99;48.70;101623.25;5084434;28;20119;-61
2023/05/21 04:49:10;;;;;;;0.30;0.30;;;;;;;17.44;48.80;101621.66;5084518;28;20025;-61
2023/05/21 04:51:36;;;;;;;0.20;0.20;;;;;;;18.13;48.00;101621.22;5084575;28;20039;-61
2023/05/21 04:54:02;;;;;;;0.20;0.20;;;;;;;18.52;46.76;101632.69;5085626;28;20025;-60
2023/05/21 04:56:28;;;;;;;0.20;0.20;;;;;;;18.70;45.82;101619.13;5087752;28;20387;-60
2023/05/21 04:58:54;;;;;;;0.50;0.50;;;;;;;18.89;44.69;101616.06;5088047;28;20044;-60
2023/05/21 05:01:24;;;;;;;0.22;0.22;;;;;;;18.77;41.03;101616.38;5087903;28;20028;-61
2023/05/21 05:03:50;;;;;;;0.20;0.20;;;;;;;18.14;41.36;101615.09;5087975;28;20051;-60
2023/05/21 05:06:15;;;;;;;0.32;0.32;;;;;;;17.54;42.49;101604.81;5087583;28;20029;-61
2023/05/21 05:08:41;;;;;;;0.20;0.20;;;;;;;17.43;42.76;101614.66;5087562;28;20108;-61
2023/05/21 05:11:06;;;;;;;0.20;0.20;;;;;;;17.36;43.01;101613.91;5087402;28;20032;-61
2023/05/21 05:13:33;;;;;;;1.40;1.30;;;;;;;17.30;43.09;101614.88;5087855;28;20024;-61
2023/05/21 05:15:59;;;;;;;0.28;0.28;;;;;;;17.30;43.38;101614.88;5087585;28;20021;-61
2023/05/21 05:18:24;;;;;;;0.20;0.20;;;;;;;17.43;42.76;101610.28;5087546;28;20124;-61
2023/05/21 05:20:50;;;;;;;0.20;0.20;;;;;;;17.50;42.92;101618.91;5087686;28;20016;-62
2023/05/21 05:23:15;;;;;;;0.30;0.30;;;;;;;17.43;42.70;101623.41;5087486;28;20024;-61
2023/05/21 05:25:41;;;;;;;0.30;0.30;;;;;;;17.45;42.20;101624.25;5087382;28;20385;-61
2023/05/21 05:28:06;;;;;;;1.23;0.88;;;;;;;17.28;42.43;101616.69;5087297;28;20029;-62
2023/05/21 05:30:32;;;;;;;0.30;0.30;;;;;;;17.43;42.48;101618.16;5087311;28;20035;-62
2023/05/21 05:32:57;;;;;;;3.22;1.40;;;;;;;17.52;42.62;101622.38;5087428;28;20047;-60
2023/05/21 05:35:22;;;;;;;0.30;0.30;;;;;;;17.67;42.46;101615.97;5087419;28;20028;-60
2023/05/21 05:37:48;;;;;;;0.30;0.30;;;;;;;17.79;41.99;101612.25;5087303;28;20050;-61
2023/05/21 05:40:13;;;;;;;0.30;0.30;;;;;;;17.92;41.52;101593.63;5087512;28;20048;-61
2023/05/21 05:42:39;;;;;;;0.50;0.50;;;;;;;18.00;41.85;101606.59;5086769;28;20034;-61
2023/05/21 05:45:04;;;;;;;0.20;0.20;;;;;;;18.25;42.11;101612.22;5087205;28;20070;-64
2023/05/21 05:47:30;;;;;;;0.30;0.30;;;;;;;18.51;40.90;101608.19;5087000;28;20031;-64
2023/05/21 05:49:56;;;;;;;0.55;0.55;;;;;;;18.62;41.15;101604.41;5086601;28;20054;-59
2023/05/21 05:52:21;;;;;;;2.25;1.10;;;;;;;18.75;40.38;101605.88;5086695;28;20035;-60
2023/05/21 05:54:46;;;;;;;0.30;0.30;;;;;;;18.80;41.27;101616.28;5087076;28;20024;-60
2023/05/21 05:57:12;;;;;;;0.20;0.20;;;;;;;18.99;40.18;101610.56;5086792;28;20098;-60
2023/05/21 05:59:37;;;;;;;0.52;0.52;;;;;;;19.14;39.64;101611.97;5086841;28;20076;-61
2023/05/21 06:02:03;;;;;;;0.20;0.20;;;;;;;19.11;40.46;101604.16;5086675;28;20036;-61
2023/05/21 06:04:28;;;;;;;0.30;0.30;;;;;;;19.42;39.49;101612.16;5086260;28;20077;-61
2023/05/21 06:06:57;;;;;;;0.20;0.20;;;;;;;19.52;39.06;101606.63;5086752;28;20048;-61
2023/05/21 06:09:23;;;;;;;0.43;0.43;;;;;;;19.58;39.93;101598.56;5086554;28;20043;-60
2023/05/21 06:11:49;;;;;;;0.20;0.20;;;;;;;20.03;40.05;101610.50;5086322;28;20088;-60
2023/05/21 06:14:14;;;;;;;0.20;0.20;;;;;;;20.71;40.71;101606.72;5086767;28;20056;-60
2023/05/21 06:16:40;;;;;;;0.20;0.20;;;;;;;21.70;40.88;101600.78;5086365;28;20056;-61
2023/05/21 06:19:05;;;;;;;0.20;0.20;;;;;;;22.78;39.25;101600.22;5086434;28;20016;-61
2023/05/21 06:21:31;;;;;;;0.20;0.20;;;;;;;23.86;40.33;101603.63;5086278;28;20073;-61
2023/05/21 06:23:56;;;;;;;0.20;0.20;;;;;;;24.62;38.09;101596.53;5086413;28;20030;-60
2023/05/21 06:26:22;;;;;;;0.20;0.20;;;;;;;24.80;37.11;101596.56;5085774;28;20107;-61
2023/05/21 06:28:48;;;;;;;0.10;0.10;;;;;;;24.73;37.04;101591.56;5086335;28;20059;-60
2023/05/21 06:31:13;;;;;;;0.20;0.20;;;;;;;24.85;35.98;101595.41;5086059;28;20024;-60
2023/05/21 06:33:39;;;;;;;0.20;0.20;;;;;;;24.79;34.77;101589.56;5086247;28;20056;-60
2023/05/21 06:36:05;;;;;;;0.10;0.10;;;;;;;24.60;35.23;101599.28;5086128;28;20024;-61
2023/05/21 06:38:30;;;;;;;0.20;0.20;;;;;;;24.71;35.99;101600.56;5086293;28;20031;-60
2023/05/21 06:40:57;;;;;;;0.10;0.10;;;;;;;24.90;36.12;101602.31;5085945;28;20028;-60
2023/05/21 06:43:23;;;;;;;0.13;0.13;;;;;;;25.36;35.93;101609.72;5086057;28;20092;-60
2023/05/21 06:45:48;;;;;;;0.10;0.10;;;;;;;25.32;34.33;101600.19;5086061;28;20031;-60
2023/05/21 06:48:15;;;;;;;0.20;0.20;;;;;;;25.17;34.64;101601.84;5086042;28;20016;-61
2023/05/21 06:50:41;;;;;;;0.20;0.20;;;;;;;25.05;34.20;101593.56;5085948;28;20024;-61
2023/05/21 06:53:07;;;;;;;0.10;0.10;;;;;;;24.78;33.53;101598.47;5085859;28;20490;-61
2023/05/21 06:55:32;;;;;;;0.82;0.82;;;;;;;24.66;34.53;101597.25;5085615;28;20400;-61
2023/05/21 06:57:58;;;;;;;0.10;0.10;;;;;;;24.78;34.29;101595.81;5085693;28;20077;-61
2023/05/21 07:00:23;;;;;;;0.20;0.20;;;;;;;24.99;34.39;101594.75;5085579;28;20024;-60
2023/05/21 07:02:49;;;;;;;0.20;0.20;;;;;;;25.23;32.18;101602.41;5085680;28;20059;-60
2023/05/21 07:05:14;;;;;;;0.22;0.22;;;;;;;24.96;32.89;101602.88;5085666;28;20020;-60
2023/05/21 07:07:39;;;;;;;0.15;0.15;;;;;;;25.20;33.57;101607.88;5085267;28;20020;-68
2023/05/21 07:10:05;;;;;;;0.10;0.10;;;;;;;25.53;33.54;101602.66;5085517;28;20024;-69
2023/05/21 07:12:31;;;;;;;0.30;0.30;;;;;;;25.84;33.39;101606.34;5085220;28;20032;-63
2023/05/21 07:14:56;;;;;;;0.10;0.10;;;;;;;25.97;33.71;101612.72;5085396;28;20031;-75
2023/05/21 07:17:21;;;;;;;0.10;0.10;;;;;;;26.22;33.26;101605.16;5084376;28;20059;-73
2023/05/21 07:19:47;;;;;;;0.20;0.20;;;;;;;26.54;33.15;101606.97;5085326;28;20091;-76
2023/05/21 07:22:12;;;;;;;0.10;0.10;;;;;;;26.62;32.39;101604.75;5085211;28;20418;-62
2023/05/21 07:24:38;;;;;;;0.10;0.10;;;;;;;26.26;32.02;101600.53;5085265;28;20390;-71
2023/05/21 07:27:05;;;;;;;0.25;0.25;;;;;;;25.86;32.66;101612.47;5084976;28;20443;-68
2023/05/21 07:29:31;;;;;;;1.95;0.85;;;;;;;25.71;32.31;101607.03;5085248;28;20051;-66
2023/05/21 07:31:56;;;;;;;0.10;0.10;;;;;;;25.95;31.63;101609.28;5085059;28;20020;-66
2023/05/21 07:34:22;;;;;;;0.10;0.10;;;;;;;26.22;31.50;101606.03;5084951;28;20054;-60
2023/05/21 07:36:47;;;;;;;0.10;0.10;;;;;;;26.24;31.63;101596.19;5084800;28;20020;-61
2023/05/21 07:39:13;;;;;;;0.10;0.10;;;;;;;26.65;29.47;101606.34;5085140;28;20040;-61
2023/05/21 07:41:38;;;;;;;0.10;0.10;;;;;;;26.56;28.11;101599.78;5084954;28;20126;-60
2023/05/21 07:44:03;;;;;;;0.20;0.20;;;;;;;26.11;28.12;101590.69;5084897;28;20096;-60
2023/05/21 07:46:29;;;;;;;0.15;0.15;;;;;;;26.05;28.81;101595.47;5085046;28;20028;-62
2023/05/21 07:48:54;;;;;;;0.10;0.10;;;;;;;26.11;29.38;101592.47;5085023;28;20032;-64
2023/05/21 07:51:20;;;;;;;0.77;0.77;;;;;;;26.55;29.13;101595.41;5084925;28;20080;-62
2023/05/21 07:53:45;;;;;;;0.20;0.20;;;;;;;26.72;27.73;101595.28;5085057;28;20029;-62
2023/05/21 07:56:11;;;;;;;0.13;0.13;;;;;;;26.73;28.06;101589.00;5084608;28;20144;-67
2023/05/21 07:58:36;;;;;;;0.10;0.10;;;;;;;26.66;27.05;101600.09;5084818;28;20028;-60
2023/05/21 08:01:02;;;;;;;0.10;0.10;;;;;;;26.22;26.70;101578.56;5084985;28;20400;-60
2023/05/21 08:03:29;;;;;;;0.10;0.10;;;;;;;26.17;27.41;101594.78;5085133;28;20025;-61
2023/05/21 08:05:55;;;;;;;0.10;0.10;;;;;;;26.62;27.49;101588.75;5084954;28;20048;-62
2023/05/21 08:08:21;;;;;;;0.10;0.10;;;;;;;26.87;26.86;101587.31;5084967;28;20149;-59
2023/05/21 08:10:46;;;;;;;0.35;0.35;;;;;;;27.07;27.38;101598.63;5084607;28;20083;-60
2023/05/21 08:13:12;;;;;;;0.10;0.10;;;;;;;27.24;26.86;101583.44;5084694;28;20032;-61
2023/05/21 08:15:38;;;;;;;0.10;0.10;;;;;;;27.63;25.08;101584.56;5084964;28;20035;-60
2023/05/21 08:18:04;;;;;;;0.17;0.17;;;;;;;27.49;26.09;101587.25;5084344;28;20368;-60
2023/05/21 08:20:31;;;;;;;4.47;1.65;;;;;;;27.20;24.47;101580.97;5084577;28;20028;-61
2023/05/21 08:22:56;;;;;;;1.10;0.82;;;;;;;26.81;24.83;101585.00;5084946;28;20032;-61
2023/05/21 08:25:22;;;;;;;0.10;0.10;;;;;;;26.53;25.23;101578.66;5084774;28;20245;-62
2023/05/21 08:27:47;;;;;;;0.10;0.10;;;;;;;26.38;25.61;101577.72;5085101;28;20031;-60
2023/05/21 08:30:13;;;;;;;0.10;0.10;;;;;;;26.60;26.46;101586.19;5088442;28;20044;-61
2023/05/21 08:32:39;;;;;;;0.10;0.10;;;;;;;27.40;25.80;101586.84;5088279;28;20035;-63
2023/05/21 08:35:05;;;;;;;0.30;0.30;;;;;;;27.39;25.62;101579.81;5088270;28;20060;-63
2023/05/21 08:37:30;;;;;;;0.10;0.10;;;;;;;27.51;26.09;101588.03;5088380;28;20048;-62
2023/05/21 08:39:55;;;;;;;0.10;0.10;;;;;;;27.41;25.58;101588.59;5088256;28;20035;-62
2023/05/21 08:42:36;;;;;;;0.10;0.10;;;;;;;27.72;25.94;101585.81;5088011;28;20048;-64
2023/05/21 08:45:04;;;;;;;0.10;0.10;;;;;;;27.92;25.38;101581.91;5088115;28;20154;-63
2023/05/21 08:47:34;;;;;;;0.13;0.13;;;;;;;27.62;25.01;101587.34;5088105;28;20024;-65
2023/05/21 08:50:01;;;;;;;0.20;0.20;;;;;;;27.30;25.78;101577.72;5087992;28;20025;-62
2023/05/21 08:52:26;;;;;;;0.10;0.10;;;;;;;27.27;25.60;101581.41;5088132;28;20028;-73
2023/05/21 08:54:53;;;;;;;0.10;0.10;;;;;;;27.11;25.83;101584.16;5087924;28;20028;-65
2023/05/21 08:57:19;;;;;;;0.10;0.10;;;;;;;27.56;25.90;101575.22;5087515;28;20035;-53
2023/05/21 08:59:45;;;;;;;0.30;0.30;;;;;;;28.33;26.03;101566.84;5088201;28;20467;-52
2023/05/21 09:02:12;;;;;;;0.10;0.10;;;;;;;28.97;25.74;101569.78;5088066;28;20027;-56
2023/05/21 09:04:40;;;;;;;0.10;0.10;;;;;;;29.37;24.93;101574.19;5087837;28;20039;-54
2023/05/21 09:07:08;;;;;;;0.10;0.10;;;;;;;29.12;24.85;101569.69;5087732;28;20024;-60
2023/05/21 09:09:40;;;;;;;0.90;0.90;;;;;;;28.92;24.58;101569.22;5087566;28;20103;-59
2023/05/21 09:12:07;;;;;;;0.10;0.10;;;;;;;28.86;25.20;101567.84;5087244;28;20024;-57
2023/05/21 09:14:34;;;;;;;0.10;0.10;;;;;;;28.65;24.08;101556.78;5085920;28;20082;-60
2023/05/21 09:17:00;;;;;;;0.10;0.10;;;;;;;28.44;24.70;101566.13;5087328;28;20496;-63
2023/05/21 09:19:25;;;;;;;0.20;0.20;;;;;;;28.27;24.69;101553.88;5087274;28;20021;-68
2023/05/21 09:21:51;;;;;;;0.10;0.10;;;;;;;28.32;25.33;101556.28;5087327;28;20020;-64
2023/05/21 09:24:17;;;;;;;0.10;0.10;;;;;;;28.79;25.41;101555.84;5086350;28;20021;-67
2023/05/21 09:26:42;;;;;;;0.10;0.10;;;;;;;29.32;25.28;101552.25;5087137;28;20361;-61
2023/05/21 09:29:08;;;;;;;0.10;0.10;;;;;;;29.66;24.46;101565.94;5087311;28;20100;-59
2023/05/21 09:31:33;;;;;;;0.25;0.25;;;;;;;29.16;23.74;101553.34;5087232;28;20020;-54
2023/05/21 09:33:59;;;;;;;0.10;0.10;;;;;;;28.68;24.08;101554.75;5087310;28;20021;-59
2023/05/21 09:36:25;;;;;;;0.10;0.10;;;;;;;28.40;24.99;101553.09;5087217;28;20098;-65
2023/05/21 09:38:51;;;;;;;0.10;0.10;;;;;;;28.34;25.24;101549.00;5087117;28;20024;-65
2023/05/21 09:41:17;;;;;;;0.10;0.10;;;;;;;28.34;25.31;101522.31;5086298;28;20016;-65
2023/05/21 09:43:43;;;;;;;0.30;0.30;;;;;;;28.92;24.12;101532.66;5085470;28;20027;-67
2023/05/21 09:46:09;;;;;;;0.20;0.20;;;;;;;29.15;24.29;101537.41;5086999;28;20074;-63
2023/05/21 09:48:37;;;;;;;0.10;0.10;;;;;;;28.79;24.16;101542.47;5087139;28;20020;-65
2023/05/21 09:51:10;;;;;;;0.10;0.10;;;;;;;28.21;24.07;101541.78;5086887;28;20025;-65
2023/05/21 09:53:41;;;;;;;0.10;0.10;;;;;;;27.72;25.13;101521.81;5087092;28;20020;-64
2023/05/21 09:56:08;;;;;;;0.40;0.40;;;;;;;28.24;25.29;101547.88;5086662;28;20027;-66
2023/05/21 09:58:33;;;;;;;0.15;0.15;;;;;;;28.61;25.17;101533.91;5086558;28;20427;-69
2023/05/21 10:00:59;;;;;;;0.10;0.10;;;;;;;29.27;24.84;101527.66;5085061;28;20490;-65
2023/05/21 10:03:27;;;;;;;0.15;0.15;;;;;;;30.13;24.33;101522.41;5086549;28;20031;-65
2023/05/21 10:05:54;;;;;;;0.10;0.10;;;;;;;31.01;24.44;101521.22;5086487;28;20431;-62
2023/05/21 10:08:24;;;;;;;0.20;0.20;;;;;;;31.22;23.58;101526.72;5086162;28;20032;-61
2023/05/21 10:10:49;;;;;;;0.20;0.20;;;;;;;30.33;23.08;101506.69;5086425;28;20058;-67
2023/05/21 10:13:20;;;;;;;0.20;0.20;;;;;;;30.08;23.21;101523.72;5086205;28;20300;-56
2023/05/21 10:16:03;;;;;;;0.10;0.10;;;;;;;29.53;23.91;101520.47;5086252;28;20090;-57
2023/05/21 10:18:31;;;;;;;0.10;0.10;;;;;;;29.54;24.32;101511.47;5085905;28;20094;-55
2023/05/21 10:20:57;;;;;;;0.10;0.10;;;;;;;29.44;23.96;101513.09;5085637;28;20092;-56
2023/05/21 10:23:24;;;;;;;0.10;0.10;;;;;;;29.46;24.69;101513.00;5085059;28;20028;-56
2023/05/21 10:25:50;;;;;;;1.00;1.00;;;;;;;29.64;23.87;101511.69;5086048;28;20044;-61
2023/05/21 10:28:17;;;;;;;0.10;0.10;;;;;;;29.48;23.74;101503.00;5085715;28;20028;-54
2023/05/21 10:30:43;;;;;;;0.10;0.10;;;;;;;28.60;23.77;101511.69;5085681;28;20021;-61
2023/05/21 10:33:15;;;;;;;0.25;0.25;;;;;;;27.78;24.52;101500.06;5084354;28;20028;-58
2023/05/21 10:35:41;;;;;;;0.10;0.10;;;;;;;27.48;24.74;101498.38;5085989;28;20028;-57
2023/05/21 10:38:08;;;;;;;0.10;0.10;;;;;;;27.60;25.22;101494.94;5085863;28;20024;-58
2023/05/21 10:40:34;;;;;;;0.20;0.20;;;;;;;27.50;25.44;101492.97;5085670;28;20042;-59
2023/05/21 10:43:51;;;;;;;0.10;0.10;;;;;;;27.56;25.48;101501.44;5085647;28;20024;-57
2023/05/21 10:47:27;;;;;;;0.10;0.10;;;;;;;27.66;25.58;101496.38;5063293;28;20036;-59
2023/05/21 10:49:56;;;;;;;0.68;0.68;;;;;;;27.56;24.84;101489.91;5003458;28;20053;-56
2023/05/21 10:52:27;;;;;;;0.10;0.10;;;;;;;26.94;25.58;101489.22;5003692;28;20042;-56
2023/05/21 10:55:11;;;;;;;0.28;0.28;;;;;;;26.39;26.49;101488.94;5003710;28;20542;-59
2023/05/21 10:57:55;;;;;;;1.58;0.63;;;;;;;25.88;27.09;101484.69;5003631;28;20057;-62
2023/05/21 11:00:21;;;;;;;0.10;0.10;;;;;;;25.11;28.44;101486.97;5003938;28;20038;-60
2023/05/21 11:02:48;;;;;;;0.10;0.10;;;;;;;24.84;28.75;101476.00;5003680;28;20045;-61
2023/05/21 11:05:13;;;;;;;0.10;0.10;;;;;;;24.85;28.78;101470.59;5003566;28;20090;-61
2023/05/21 11:08:00;;;;;;;0.10;0.10;;;;;;;25.13;29.06;101478.91;5003598;28;20037;-63
2023/05/21 11:10:44;;;;;;;0.10;0.10;;;;;;;24.93;28.93;101467.56;5003539;28;20056;-63
2023/05/21 11:13:12;;;;;;;0.20;0.20;;;;;;;24.85;28.88;101478.56;5003378;28;20097;-61
2023/05/21 11:15:56;;;;;;;0.55;0.55;;;;;;;24.76;29.23;101476.41;5003471;28;20106;-61
2023/05/21 11:18:42;;;;;;;0.15;0.15;;;;;;;24.89;29.62;101473.97;5003206;28;20053;-61
2023/05/21 11:21:14;;;;;;;0.10;0.10;;;;;;;25.01;29.44;101477.78;4993181;28;20046;-60
2023/05/21 11:23:59;;;;;;;0.20;0.20;;;;;;;25.06;29.73;101480.19;5003281;28;20037;-64
2023/05/21 11:26:27;;;;;;;0.20;0.20;;;;;;;24.83;29.78;101471.59;5075724;28;20033;-63